Time;durP1;ratioP1;P1;durP2;ratioP2;P2;SDS_P1;SDS_P2;PMS_P1;PMS_P2;Temp;Humidity;BMP_temperature;BMP_pressure;BME280_temperature;BME280_humidity;BME280_pressure;Samples;Min_cycle;Max_cycle;Signal;HPM_P1;HPM_P2
2022/07/14 00:00:54;;;;;;;14.70;4.20;;;;;;;17.51;96.42;96599.19;5070571;28;20510;-73
2022/07/14 00:03:21;;;;;;;13.67;4.07;;;;;;;16.98;100.00;96588.59;5070338;28;20428;-73
2022/07/14 00:05:48;;;;;;;15.97;5.43;;;;;;;17.06;100.00;96596.31;5053566;28;20560;-73
2022/07/14 00:08:15;;;;;;;11.30;4.33;;;;;;;17.30;99.77;96595.09;5091028;28;20447;-73
2022/07/14 00:10:42;;;;;;;13.57;4.20;;;;;;;17.24;96.84;96591.22;5077391;28;20459;-73
2022/07/14 00:13:08;;;;;;;12.50;4.20;;;;;;;17.01;100.00;96591.28;5061444;28;20969;-73
2022/07/14 00:15:35;;;;;;;15.87;4.10;;;;;;;16.60;100.00;96576.94;5069777;28;20882;-73
2022/07/14 00:18:02;;;;;;;5.40;3.33;;;;;;;16.90;100.00;96577.00;5078001;28;20548;-73
2022/07/14 00:20:29;;;;;;;8.97;2.93;;;;;;;16.75;99.75;96554.69;5066796;28;20540;-73
2022/07/14 00:22:56;;;;;;;9.33;4.00;;;;;;;16.54;100.00;96552.44;5073434;28;20431;-73
2022/07/14 00:25:27;;;;;;;6.10;3.00;;;;;;;16.57;100.00;96552.88;5058142;28;20798;-73
2022/07/14 00:27:54;;;;;;;5.90;2.90;;;;;;;17.02;98.72;96621.44;5049931;28;20489;-73
2022/07/14 00:30:22;;;;;;;5.07;2.87;;;;;;;16.59;100.00;96587.97;5067615;28;20455;-73
2022/07/14 00:32:49;;;;;;;7.20;3.20;;;;;;;16.73;100.00;96614.94;5076648;28;20445;-73
2022/07/14 00:35:16;;;;;;;5.50;2.63;;;;;;;16.41;99.85;96593.03;5067115;28;20444;-73
2022/07/14 00:37:43;;;;;;;5.10;2.87;;;;;;;16.51;98.02;96603.09;5081640;28;20463;-73
2022/07/14 00:40:10;;;;;;;2.53;2.33;;;;;;;16.51;98.87;96606.53;5072402;28;20444;-73
2022/07/14 00:42:50;;;;;;;3.70;2.17;;;;;;;16.42;100.00;96606.00;5069829;28;20868;-73
2022/07/14 00:45:20;;;;;;;2.63;2.43;;;;;;;16.56;98.07;96589.47;5069725;28;20468;-73
2022/07/14 00:47:48;;;;;;;2.87;2.53;;;;;;;16.81;97.21;96609.31;5100049;28;20455;-73
2022/07/14 00:50:17;;;;;;;3.00;2.33;;;;;;;16.98;94.83;96593.91;5069787;28;20439;-73
2022/07/14 00:52:46;;;;;;;2.53;2.33;;;;;;;16.98;94.88;96599.25;5083263;28;20499;-73
2022/07/14 00:55:15;;;;;;;3.10;2.50;;;;;;;16.77;99.36;96603.16;5053134;28;20428;-73
2022/07/14 00:57:42;;;;;;;3.17;2.40;;;;;;;16.74;99.39;96579.84;5054696;28;20491;-73
2022/07/14 01:00:13;;;;;;;5.10;2.77;;;;;;;16.80;99.40;96607.00;5094034;28;20528;-73
2022/07/14 01:02:42;;;;;;;3.57;2.67;;;;;;;16.86;98.55;96588.78;5094106;28;20439;-73
2022/07/14 01:05:09;;;;;;;5.37;2.33;;;;;;;16.88;98.83;96581.94;5093841;28;20547;-73
2022/07/14 01:07:36;;;;;;;3.27;2.73;;;;;;;16.47;100.00;96559.56;5093607;28;20452;-73
2022/07/14 01:10:03;;;;;;;5.47;3.13;;;;;;;16.43;100.00;96566.78;5083736;28;20842;-73
2022/07/14 01:12:31;;;;;;;9.80;3.00;;;;;;;16.22;100.00;96569.84;5073452;28;20440;-73
2022/07/14 01:14:58;;;;;;;3.00;2.80;;;;;;;16.19;100.00;96552.66;5090087;28;20481;-73
2022/07/14 01:17:25;;;;;;;6.03;3.23;;;;;;;16.42;100.00;96591.88;5055764;28;20821;-73
2022/07/14 01:19:52;;;;;;;3.33;2.87;;;;;;;16.63;100.00;96591.47;5069994;28;20624;-73
2022/07/14 01:22:18;;;;;;;5.20;3.20;;;;;;;16.71;100.00;96596.59;5070898;28;20944;-73
2022/07/14 01:24:45;;;;;;;5.47;3.13;;;;;;;16.54;100.00;96565.78;5073081;28;20428;-73
2022/07/14 01:27:12;;;;;;;8.03;3.07;;;;;;;16.60;100.00;96574.28;5056497;28;20512;-73
2022/07/14 01:29:39;;;;;;;8.30;3.40;;;;;;;16.60;100.00;96606.31;5061955;28;20487;-73
2022/07/14 01:32:07;;;;;;;6.23;3.60;;;;;;;16.43;100.00;96569.44;5069578;28;20438;-73
2022/07/14 01:34:33;;;;;;;6.03;4.20;;;;;;;16.75;100.00;96593.97;5076205;28;20436;-73
2022/07/14 01:37:00;;;;;;;9.10;3.77;;;;;;;16.66;100.00;96572.81;5088484;28;20497;-73
2022/07/14 01:39:27;;;;;;;9.50;3.90;;;;;;;16.46;100.00;96569.47;5061408;28;20453;-73
2022/07/14 01:41:53;;;;;;;9.23;4.73;;;;;;;16.28;100.00;96565.75;5071093;28;20429;-73
2022/07/14 01:44:21;;;;;;;15.00;4.23;;;;;;;16.19;100.00;96541.22;5053074;28;20444;-73
2022/07/14 01:46:48;;;;;;;13.00;4.27;;;;;;;16.65;100.00;96565.19;5071447;28;20518;-73
2022/07/14 01:49:17;;;;;;;9.80;3.70;;;;;;;16.54;100.00;96565.00;5072608;28;20432;-73
2022/07/14 01:51:45;;;;;;;10.93;3.53;;;;;;;16.80;100.00;96586.41;5066482;28;20449;-73
2022/07/14 01:54:12;;;;;;;7.20;3.27;;;;;;;16.67;100.00;96581.59;5080050;28;20812;-73
2022/07/14 01:56:41;;;;;;;13.27;3.83;;;;;;;16.80;100.00;96570.38;5077193;28;20859;-73
2022/07/14 01:59:10;;;;;;;11.60;3.60;;;;;;;16.96;100.00;96593.50;5076600;28;20854;-73
2022/07/14 02:01:41;;;;;;;11.90;3.57;;;;;;;16.76;100.00;96566.91;5085929;28;20436;-73
2022/07/14 02:04:14;;;;;;;12.70;3.53;;;;;;;16.83;100.00;96576.94;5089702;28;20433;-73
2022/07/14 02:06:45;;;;;;;11.40;4.57;;;;;;;16.47;100.00;96556.91;5072504;28;20461;-73
2022/07/14 02:12:10;;;;;;;16.40;5.57;;;;;;;16.66;100.00;96572.81;5062968;28;20443;-73
2022/07/14 02:12:14;;;;;;;11.83;3.83;;;;;;;16.59;100.00;96569.28;5092487;28;20438;-73
2022/07/14 02:14:42;;;;;;;15.17;4.40;;;;;;;16.71;100.00;96566.44;5092552;28;20535;-73
2022/07/14 02:17:09;;;;;;;14.73;3.43;;;;;;;16.29;100.00;96534.50;5092496;28;20463;-73
2022/07/14 02:19:36;;;;;;;7.53;4.43;;;;;;;16.60;100.00;96546.81;5092615;28;20451;-72
2022/07/14 02:22:04;;;;;;;7.90;3.33;;;;;;;16.78;100.00;96555.84;5091462;28;20439;-73
2022/07/14 02:24:31;;;;;;;12.63;7.17;;;;;;;16.89;100.00;96558.69;5072279;28;20482;-73
2022/07/14 02:26:58;;;;;;;7.80;7.10;;;;;;;16.97;100.00;96566.44;5072085;28;20523;-73
2022/07/14 02:29:25;;;;;;;11.30;4.50;;;;;;;17.01;100.00;96561.91;5072185;28;20977;-73
2022/07/14 02:31:51;;;;;;;4.30;3.90;;;;;;;17.20;100.00;96566.34;5072035;28;20437;-73
2022/07/14 02:34:19;;;;;;;6.03;3.87;;;;;;;17.14;100.00;96565.13;5055562;28;20450;-73
2022/07/14 02:36:47;;;;;;;4.30;3.90;;;;;;;17.14;100.00;96552.53;5088883;28;20436;-73
2022/07/14 02:39:14;;;;;;;8.63;3.43;;;;;;;17.05;100.00;96553.94;5072024;28;20452;-73
2022/07/14 02:41:42;;;;;;;5.70;3.43;;;;;;;17.05;100.00;96570.72;5072026;28;20433;-73
2022/07/14 02:44:10;;;;;;;7.80;3.60;;;;;;;16.72;100.00;96543.97;5088740;28;20474;-73
2022/07/14 02:46:37;;;;;;;5.90;3.87;;;;;;;16.78;100.00;96559.28;5055294;28;20440;-73
2022/07/14 02:49:05;;;;;;;5.80;3.90;;;;;;;16.87;100.00;96559.03;5071662;28;20514;-73
2022/07/14 02:51:34;;;;;;;5.17;4.33;;;;;;;16.67;100.00;96539.69;5071412;28;20447;-73
2022/07/14 02:54:01;;;;;;;4.80;3.70;;;;;;;16.76;100.00;96537.53;5068494;28;20494;-73
2022/07/14 02:56:28;;;;;;;7.70;3.63;;;;;;;16.92;100.00;96537.34;5055230;28;20451;-73
2022/07/14 02:58:56;;;;;;;8.23;3.37;;;;;;;16.69;100.00;96540.09;5071399;28;20460;-73
2022/07/14 03:01:24;;;;;;;8.00;3.47;;;;;;;16.50;100.00;96542.84;5071219;28;20444;-73
2022/07/14 03:03:51;;;;;;;7.37;3.60;;;;;;;16.71;100.00;96572.56;5071428;28;20853;-73
2022/07/14 03:06:19;;;;;;;5.50;3.57;;;;;;;16.63;100.00;96580.78;5054607;28;20856;-73
2022/07/14 03:08:50;;;;;;;9.13;4.60;;;;;;;16.37;100.00;96541.50;5071122;28;20491;-73
2022/07/14 03:11:18;;;;;;;11.20;3.93;;;;;;;16.63;100.00;96583.47;5070963;28;20453;-73
2022/07/14 03:13:45;;;;;;;13.00;4.40;;;;;;;16.49;100.00;96571.44;5071201;28;20444;-73
2022/07/14 03:16:13;;;;;;;10.30;4.37;;;;;;;16.57;100.00;96579.56;5061438;28;20497;-73
2022/07/14 03:18:41;;;;;;;4.60;3.37;;;;;;;16.37;100.00;96552.94;5091034;28;20487;-73
2022/07/14 03:21:11;;;;;;;6.07;3.10;;;;;;;16.44;100.00;96571.75;5090554;28;20851;-73
2022/07/14 03:23:44;;;;;;;2.90;2.70;;;;;;;16.29;100.00;96563.84;5091026;28;20440;-73
2022/07/14 03:26:16;;;;;;;5.23;3.23;;;;;;;16.35;100.00;96578.44;5091068;28;20440;-72
2022/07/14 03:28:43;;;;;;;3.23;2.93;;;;;;;16.30;100.00;96576.88;5074253;28;20488;-72
2022/07/14 03:31:10;;;;;;;3.97;3.57;;;;;;;16.26;100.00;96560.00;5091384;28;20892;-72
2022/07/14 03:33:38;;;;;;;3.73;3.20;;;;;;;16.24;100.00;96559.59;5090984;28;20439;-73
2022/07/14 03:36:05;;;;;;;4.73;3.50;;;;;;;16.47;100.00;96580.94;5074370;28;20522;-73
2022/07/14 03:38:34;;;;;;;3.57;3.27;;;;;;;16.60;100.00;96576.16;5066805;28;21061;-73
2022/07/14 03:41:05;;;;;;;3.57;3.27;;;;;;;16.43;100.00;96543.50;5070663;28;20444;-72
2022/07/14 03:43:34;;;;;;;3.90;3.60;;;;;;;16.81;100.00;96582.59;5070669;28;20490;-72
2022/07/14 03:46:03;;;;;;;5.57;2.80;;;;;;;16.69;100.00;96576.69;5054391;28;20543;-72
2022/07/14 03:48:32;;;;;;;6.53;3.20;;;;;;;16.85;100.00;96574.66;5054143;28;20526;-72
2022/07/14 03:51:02;;;;;;;3.63;3.07;;;;;;;16.94;100.00;96571.72;5087537;28;20443;-72
2022/07/14 03:53:32;;;;;;;3.40;3.10;;;;;;;16.94;100.00;96575.16;5059915;28;21136;-73
2022/07/14 03:56:00;;;;;;;4.93;2.90;;;;;;;16.97;100.00;96571.00;5078456;28;20463;-73
2022/07/14 03:58:34;;;;;;;4.80;3.40;;;;;;;17.00;100.00;96559.59;5070329;28;20478;-73
2022/07/14 04:01:02;;;;;;;3.50;3.30;;;;;;;16.94;100.00;96561.78;5056893;28;20492;-73
2022/07/14 04:03:30;;;;;;;5.80;2.80;;;;;;;17.02;100.00;96571.47;5070389;28;20936;-73
2022/07/14 04:05:57;;;;;;;4.87;3.70;;;;;;;17.07;100.00;96573.03;5085261;28;20420;-73
2022/07/14 04:08:24;;;;;;;2.80;2.60;;;;;;;16.88;100.00;96573.94;5060743;28;20449;-73
2022/07/14 04:10:57;;;;;;;3.27;3.07;;;;;;;16.93;100.00;96575.50;5073458;28;20432;-73
2022/07/14 04:13:24;;;;;;;3.27;2.43;;;;;;;17.06;100.00;96576.84;5090583;28;20943;-73
2022/07/14 04:16:14;;;;;;;7.70;3.70;;;;;;;17.08;100.00;96578.00;5058993;28;20463;-73
2022/07/14 04:18:47;;;;;;;4.93;2.83;;;;;;;16.83;100.00;96534.19;5074953;28;20472;-73
2022/07/14 04:21:14;;;;;;;5.50;3.10;;;;;;;16.79;100.00;96576.84;5065242;28;20442;-73
2022/07/14 04:23:43;;;;;;;4.47;4.07;;;;;;;16.72;100.00;96570.66;5074088;28;20500;-72
2022/07/14 04:26:10;;;;;;;5.83;3.17;;;;;;;16.73;100.00;96562.28;5074315;28;20431;-72
2022/07/14 04:28:38;;;;;;;6.43;4.90;;;;;;;16.97;100.00;96585.13;5073359;28;20894;-72
2022/07/14 04:31:08;;;;;;;3.57;2.70;;;;;;;17.19;100.00;96575.47;5080014;28;20443;-74
2022/07/14 04:33:37;;;;;;;3.97;3.57;;;;;;;17.12;100.00;96551.38;5085738;28;20452;-73
2022/07/14 04:36:05;;;;;;;5.23;2.83;;;;;;;16.96;100.00;96564.91;5080767;28;20977;-73
2022/07/14 04:38:33;;;;;;;4.37;2.83;;;;;;;16.86;100.00;96573.53;5091219;28;21006;-73
2022/07/14 04:41:00;;;;;;;4.23;3.17;;;;;;;16.77;100.00;96575.69;5078688;28;21051;-74
2022/07/14 04:43:29;;;;;;;4.63;3.67;;;;;;;16.70;100.00;96556.91;5069868;28;20814;-74
2022/07/14 04:46:00;;;;;;;4.70;2.87;;;;;;;16.67;100.00;96541.56;5074544;28;20429;-74
2022/07/14 04:48:28;;;;;;;6.50;3.87;;;;;;;16.86;100.00;96584.22;5082272;28;20457;-73
2022/07/14 04:53:41;;;;;;;3.83;3.53;;;;;;;17.00;100.00;96572.97;5060594;28;21077;-74
2022/07/14 04:56:28;;;;;;;3.67;3.37;;;;;;;17.13;100.00;96577.72;5069849;28;20447;-74
2022/07/14 04:59:13;;;;;;;5.53;4.00;;;;;;;17.18;100.00;96581.19;5070159;28;20471;-74
2022/07/14 05:01:40;;;;;;;5.60;3.53;;;;;;;17.34;100.00;96590.56;5091347;28;20462;-74
2022/07/14 05:04:07;;;;;;;4.37;3.37;;;;;;;17.27;100.00;96590.50;5058754;28;20425;-74
2022/07/14 05:06:35;;;;;;;3.97;3.67;;;;;;;16.84;100.00;96578.47;5053423;28;20439;-74
2022/07/14 05:09:03;;;;;;;6.50;3.13;;;;;;;16.84;100.00;96573.91;5069641;28;20462;-75
2022/07/14 05:11:32;;;;;;;11.50;3.70;;;;;;;17.01;100.00;96572.59;5061865;28;20467;-74
2022/07/14 05:13:59;;;;;;;3.63;3.33;;;;;;;17.46;100.00;96607.50;5073157;28;20935;-74
2022/07/14 05:16:27;;;;;;;4.33;3.70;;;;;;;17.67;100.00;96583.69;5089706;28;20497;-74
2022/07/14 05:18:55;;;;;;;4.47;4.07;;;;;;;17.89;100.00;96600.75;5089484;28;20467;-74
2022/07/14 05:21:22;;;;;;;4.37;3.30;;;;;;;17.69;100.00;96576.09;5089783;28;20451;-74
2022/07/14 05:23:49;;;;;;;4.07;3.33;;;;;;;18.35;100.00;96609.25;5089781;28;20435;-74
2022/07/14 05:26:17;;;;;;;4.53;3.57;;;;;;;18.51;100.00;96599.03;5089653;28;20436;-74
2022/07/14 05:28:44;;;;;;;5.73;4.10;;;;;;;18.64;96.29;96582.72;5089723;28;20895;-74
2022/07/14 05:31:11;;;;;;;4.07;3.77;;;;;;;18.64;93.95;96588.84;5089642;28;20453;-75
2022/07/14 05:33:43;;;;;;;5.57;4.60;;;;;;;18.50;93.41;96589.47;5065218;28;20438;-74
2022/07/14 05:36:10;;;;;;;4.50;4.10;;;;;;;18.54;93.83;96600.97;5049335;28;20449;-74
2022/07/14 05:38:37;;;;;;;5.30;3.87;;;;;;;18.47;93.12;96600.16;5083974;28;20541;-74
2022/07/14 05:41:04;;;;;;;4.07;3.73;;;;;;;18.55;95.75;96607.88;5069443;28;20527;-74
2022/07/14 05:43:31;;;;;;;3.97;3.33;;;;;;;18.22;99.98;96613.34;5063273;28;20445;-74
2022/07/14 05:46:04;;;;;;;5.30;3.77;;;;;;;18.24;99.78;96600.34;5053121;28;20445;-74
2022/07/14 05:48:31;;;;;;;4.10;3.77;;;;;;;18.24;100.00;96603.03;5072512;28;20478;-74
2022/07/14 05:51:04;;;;;;;4.33;3.90;;;;;;;18.61;99.62;96619.03;5089952;28;20490;-74
2022/07/14 05:53:31;;;;;;;4.93;4.47;;;;;;;18.70;97.67;96594.63;5069916;28;20866;-74
2022/07/14 05:55:58;;;;;;;8.43;4.43;;;;;;;18.86;92.46;96616.56;5073063;28;20531;-74
2022/07/14 05:58:25;;;;;;;5.30;4.30;;;;;;;18.88;90.95;96579.44;5072703;28;20467;-74
2022/07/14 06:00:52;;;;;;;6.30;4.00;;;;;;;19.48;89.26;96622.63;5073692;28;20451;-74
2022/07/14 06:03:19;;;;;;;4.30;4.00;;;;;;;19.53;85.35;96570.56;5093097;28;20943;-74
2022/07/14 06:05:47;;;;;;;3.97;3.67;;;;;;;20.13;81.98;96628.25;5092986;28;20522;-74
2022/07/14 06:08:13;;;;;;;10.13;3.97;;;;;;;20.17;78.91;96612.94;5086191;28;20444;-74
2022/07/14 06:10:42;;;;;;;4.13;3.73;;;;;;;20.45;77.69;96623.72;5060255;28;20441;-74
2022/07/14 06:13:09;;;;;;;5.30;3.77;;;;;;;20.77;75.80;96614.88;5084727;28;20482;-74
2022/07/14 06:15:41;;;;;;;4.17;3.73;;;;;;;21.06;74.05;96637.13;5086157;28;20558;-73
2022/07/14 06:18:10;;;;;;;4.33;3.50;;;;;;;20.93;73.66;96601.81;5064681;28;20479;-74
2022/07/14 06:20:40;;;;;;;6.43;3.73;;;;;;;21.12;72.73;96628.28;5079085;28;20468;-74
2022/07/14 06:23:09;;;;;;;6.37;3.33;;;;;;;20.99;70.65;96578.00;5082907;28;20433;-74
2022/07/14 06:25:38;;;;;;;4.00;3.60;;;;;;;21.14;69.46;96607.16;5058623;28;20462;-73
2022/07/14 06:28:06;;;;;;;4.63;3.00;;;;;;;21.03;64.70;96617.16;5055917;28;20453;-73
2022/07/14 06:30:34;;;;;;;3.03;2.83;;;;;;;21.53;65.99;96642.03;5058603;28;20464;-73
2022/07/14 06:33:01;;;;;;;3.87;3.50;;;;;;;21.69;65.79;96627.38;5072123;28;20433;-73
2022/07/14 06:35:28;;;;;;;3.73;3.43;;;;;;;22.17;64.30;96615.97;5058418;28;21010;-73
2022/07/14 06:38:17;;;;;;;4.60;3.90;;;;;;;22.16;64.52;96617.91;5071961;28;20466;-73
2022/07/14 06:40:43;;;;;;;3.63;3.30;;;;;;;22.66;63.59;96629.09;5084736;28;20463;-73
2022/07/14 06:43:10;;;;;;;2.60;2.40;;;;;;;22.80;60.48;96611.25;5071859;28;20784;-73
2022/07/14 06:45:57;;;;;;;4.10;3.67;;;;;;;23.33;59.17;96616.16;5083464;28;20919;-73
2022/07/14 06:48:24;;;;;;;4.20;3.20;;;;;;;23.06;59.17;96621.44;5078408;28;20452;-73
2022/07/14 06:50:51;;;;;;;2.67;2.47;;;;;;;23.68;56.68;96616.97;5063330;28;20456;-73
2022/07/14 06:53:17;;;;;;;2.87;2.67;;;;;;;23.61;56.03;96584.63;5069457;28;20463;-73
2022/07/14 06:55:44;;;;;;;3.03;2.83;;;;;;;23.30;56.48;96615.03;5070799;28;20429;-73
2022/07/14 06:58:11;;;;;;;4.43;2.80;;;;;;;23.37;56.39;96608.81;5077009;28;20459;-73
2022/07/14 07:00:37;;;;;;;2.73;2.53;;;;;;;22.89;57.74;96604.28;5091889;28;20459;-73
2022/07/14 07:03:11;;;;;;;2.53;2.20;;;;;;;23.01;56.61;96605.72;5069298;28;20459;-73
2022/07/14 07:08:25;;;;;;;2.30;2.20;;;;;;;22.54;59.00;96605.31;5081981;28;20488;-73
2022/07/14 07:10:55;;;;;;;3.00;2.80;;;;;;;22.39;59.33;96582.34;5072711;28;20464;-73
2022/07/14 07:13:22;;;;;;;2.83;2.50;;;;;;;22.24;59.47;96586.31;5071488;28;20443;-73
2022/07/14 07:15:56;;;;;;;3.40;2.67;;;;;;;22.20;59.53;96586.34;5090572;28;20447;-73
2022/07/14 07:18:23;;;;;;;2.83;2.63;;;;;;;22.33;59.05;96586.63;5080180;28;21214;-73
2022/07/14 07:20:49;;;;;;;3.00;2.77;;;;;;;22.61;59.23;96599.88;5054739;28;20557;-73
2022/07/14 07:23:18;;;;;;;2.73;2.53;;;;;;;22.39;61.06;96610.06;5071285;28;20424;-73
2022/07/14 07:25:45;;;;;;;2.60;2.40;;;;;;;22.39;61.17;96583.09;5054510;28;20939;-73
2022/07/14 07:28:12;;;;;;;5.00;3.03;;;;;;;22.81;60.50;96604.69;5082680;28;20987;-73
2022/07/14 07:30:38;;;;;;;2.70;2.53;;;;;;;22.86;60.20;96597.00;5091083;28;21024;-73
2022/07/14 07:33:05;;;;;;;2.50;2.30;;;;;;;22.96;59.41;96603.44;5062765;28;20433;-73
2022/07/14 07:35:32;;;;;;;2.93;2.73;;;;;;;23.13;58.99;96599.81;5071074;28;20547;-73
2022/07/14 07:38:05;;;;;;;3.53;2.80;;;;;;;23.23;59.43;96600.84;5071073;28;20556;-73
2022/07/14 07:40:32;;;;;;;3.70;2.87;;;;;;;22.89;60.24;96568.47;5084703;28;20558;-73
2022/07/14 07:42:58;;;;;;;2.80;2.60;;;;;;;23.25;59.74;96585.03;5070812;28;20941;-73
2022/07/14 07:45:25;;;;;;;4.23;3.30;;;;;;;23.14;60.25;96568.19;5070832;28;20436;-73
2022/07/14 07:47:52;;;;;;;3.13;2.93;;;;;;;23.33;59.41;96562.19;5054056;28;21070;-73
2022/07/14 07:50:19;;;;;;;5.27;2.90;;;;;;;23.32;59.79;96554.50;5054116;28;20436;-73
2022/07/14 07:52:45;;;;;;;3.60;3.30;;;;;;;23.10;60.31;96553.97;5068635;28;20433;-73
2022/07/14 07:55:13;;;;;;;4.10;3.00;;;;;;;23.21;60.49;96552.69;5078587;28;20466;-73
2022/07/14 07:57:52;;;;;;;3.53;3.27;;;;;;;23.27;60.19;96551.09;5091075;28;21047;-73
2022/07/14 08:00:20;;;;;;;2.80;2.60;;;;;;;23.15;60.11;96546.22;5074186;28;20460;-73
2022/07/14 08:02:53;;;;;;;4.57;3.03;;;;;;;23.24;62.37;96562.69;5073788;28;20784;-73
2022/07/14 08:05:25;;;;;;;2.57;2.30;;;;;;;22.83;67.59;96568.09;5070387;28;20888;-73
2022/07/14 08:08:12;;;;;;;3.10;2.90;;;;;;;23.20;63.77;96582.78;5045912;28;20457;-73
2022/07/14 08:10:39;;;;;;;4.90;2.80;;;;;;;23.45;60.79;96585.94;5085576;28;20459;-73
2022/07/14 08:13:07;;;;;;;5.73;3.10;;;;;;;23.47;59.97;96586.31;5090642;28;20458;-73
2022/07/14 08:15:34;;;;;;;3.10;2.53;;;;;;;23.58;59.65;96581.56;5075025;28;20602;-73
2022/07/14 08:18:00;;;;;;;4.00;3.23;;;;;;;23.11;59.89;96521.22;5070577;28;20448;-73
2022/07/14 08:20:27;;;;;;;3.40;2.60;;;;;;;22.65;59.66;96503.56;5074602;28;20460;-73
2022/07/14 08:22:54;;;;;;;4.00;2.70;;;;;;;23.24;59.62;96572.72;5090818;28;20435;-74
2022/07/14 08:25:22;;;;;;;7.63;2.90;;;;;;;23.70;60.13;96571.41;5091663;28;20848;-73
2022/07/14 08:27:49;;;;;;;4.00;3.70;;;;;;;23.65;59.79;96552.97;5090260;28;20454;-73
2022/07/14 08:30:15;;;;;;;5.10;3.27;;;;;;;23.73;59.27;96540.88;5078138;28;20416;-73
2022/07/14 08:32:46;;;;;;;3.23;2.93;;;;;;;24.38;59.33;96557.69;5090169;28;20927;-74
2022/07/14 08:35:15;;;;;;;3.03;2.70;;;;;;;24.43;58.23;96559.94;5090347;28;20443;-73
2022/07/14 08:37:42;;;;;;;3.23;2.93;;;;;;;25.22;56.91;96554.66;5073290;28;20534;-73
2022/07/14 08:40:12;;;;;;;4.50;2.90;;;;;;;24.90;57.64;96551.78;5071653;28;20468;-73
2022/07/14 08:42:44;;;;;;;3.97;2.70;;;;;;;24.87;56.46;96549.91;5071150;28;20424;-73
2022/07/14 08:45:13;;;;;;;2.83;2.53;;;;;;;25.54;55.25;96545.91;5059219;28;20947;-73
2022/07/14 08:47:41;;;;;;;3.27;3.07;;;;;;;25.98;53.77;96515.97;5077507;28;20484;-74
2022/07/14 08:50:11;;;;;;;2.60;2.40;;;;;;;26.02;54.14;96517.38;5069758;28;20866;-73
2022/07/14 08:52:38;;;;;;;3.43;2.90;;;;;;;26.43;53.34;96543.94;5079851;28;20437;-74
2022/07/14 08:55:07;;;;;;;4.07;3.27;;;;;;;26.70;51.86;96513.03;5069724;28;20483;-73
2022/07/14 08:57:35;;;;;;;3.27;2.73;;;;;;;26.94;51.01;96527.13;5069767;28;20473;-74
2022/07/14 09:00:06;;;;;;;5.57;2.57;;;;;;;26.93;50.96;96541.91;5091132;28;20487;-74
2022/07/14 09:02:33;;;;;;;2.63;2.43;;;;;;;26.92;49.11;96511.28;5089864;28;20485;-74
2022/07/14 09:05:17;;;;;;;6.53;2.60;;;;;;;26.88;48.32;96540.47;5075437;28;20439;-74
2022/07/14 09:07:44;;;;;;;3.07;2.33;;;;;;;27.16;48.81;96532.78;5089710;28;20542;-73
2022/07/14 09:10:17;;;;;;;2.73;2.37;;;;;;;27.32;47.31;96525.31;5089722;28;20431;-73
2022/07/14 09:12:45;;;;;;;2.57;2.47;;;;;;;27.45;46.77;96522.63;5091120;28;20503;-74
2022/07/14 09:18:00;;;;;;;4.90;2.57;;;;;;;27.62;46.86;96526.03;5089664;28;21002;-74
2022/07/14 09:20:31;;;;;;;3.03;2.50;;;;;;;27.53;47.33;96515.81;5061068;28;20452;-73
2022/07/14 09:23:01;;;;;;;5.00;2.93;;;;;;;27.70;46.92;96515.75;5073636;28;20437;-74
2022/07/14 09:25:34;;;;;;;4.23;2.37;;;;;;;27.48;47.35;96510.91;5090772;28;20460;-74
2022/07/14 09:28:02;;;;;;;5.10;3.40;;;;;;;27.79;46.96;96505.00;5077617;28;20983;-74
2022/07/14 09:30:29;;;;;;;3.57;3.27;;;;;;;28.18;46.14;96509.16;5091121;28;20471;-74
2022/07/14 09:32:59;;;;;;;8.50;2.80;;;;;;;28.32;45.92;96506.03;5056782;28;20436;-74
2022/07/14 09:35:37;;;;;;;4.70;2.20;;;;;;;28.45;45.43;96495.13;5091135;28;20512;-74
2022/07/14 09:38:20;;;;;;;5.30;2.40;;;;;;;27.92;45.73;96459.53;5063744;28;21156;-74
2022/07/14 09:40:48;;;;;;;3.47;2.50;;;;;;;28.36;44.87;96462.38;5073165;28;20460;-74
2022/07/14 09:43:15;;;;;;;4.80;2.10;;;;;;;28.36;44.87;96478.72;5072955;28;20481;-74
2022/07/14 09:45:45;;;;;;;2.37;2.10;;;;;;;28.64;45.08;96483.19;5056478;28;20979;-74
2022/07/14 09:48:21;;;;;;;3.20;2.90;;;;;;;28.53;45.19;96472.66;5072861;28;20447;-74
2022/07/14 09:51:03;;;;;;;4.17;2.30;;;;;;;27.89;45.37;96446.78;5073667;28;20493;-74
2022/07/14 09:53:37;;;;;;;2.67;2.47;;;;;;;28.04;45.60;96456.00;5062010;28;20445;-74
2022/07/14 09:56:07;;;;;;;3.60;2.47;;;;;;;28.30;46.05;96456.72;5054700;28;20626;-74
2022/07/14 09:58:54;;;;;;;3.10;2.40;;;;;;;28.36;45.51;96451.50;5056133;28;20484;-74
2022/07/14 10:01:23;;;;;;;2.63;2.43;;;;;;;28.21;45.37;96440.31;5093173;28;20451;-74
2022/07/14 10:03:53;;;;;;;8.13;2.40;;;;;;;28.25;45.10;96413.75;5092958;28;20435;-74
2022/07/14 10:06:22;;;;;;;4.53;2.37;;;;;;;28.49;44.71;96439.38;5067996;28;20523;-74
2022/07/14 10:09:06;;;;;;;2.10;2.00;;;;;;;28.61;44.97;96437.81;5072447;28;20551;-74
2022/07/14 10:11:34;;;;;;;2.87;1.90;;;;;;;28.10;47.13;96405.31;5089431;28;20535;-74
2022/07/14 10:14:01;;;;;;;2.60;2.40;;;;;;;28.34;46.44;96404.94;5072377;28;20444;-74
2022/07/14 10:16:31;;;;;;;3.00;2.30;;;;;;;28.66;44.77;96407.28;5073615;28;20526;-75
2022/07/14 10:19:00;;;;;;;10.60;2.57;;;;;;;28.81;44.73;96430.06;5072659;28;20903;-74
2022/07/14 10:21:35;;;;;;;4.50;2.27;;;;;;;28.77;45.03;96429.44;5073429;28;20517;-74
2022/07/14 10:24:03;;;;;;;2.53;2.33;;;;;;;28.31;44.43;96424.84;5073754;28;20431;-74
2022/07/14 10:26:30;;;;;;;6.03;2.63;;;;;;;28.91;44.00;96430.94;5073665;28;20473;-74
2022/07/14 10:28:57;;;;;;;2.40;2.23;;;;;;;28.85;45.07;96417.09;5072096;28;20847;-74
2022/07/14 10:31:29;;;;;;;2.83;2.53;;;;;;;29.02;43.13;96416.94;5066864;28;20501;-74
2022/07/14 10:34:02;;;;;;;2.83;2.33;;;;;;;28.76;43.67;96422.50;5092346;28;20423;-74
2022/07/14 10:36:53;;;;;;;3.07;2.63;;;;;;;28.48;44.75;96379.97;5078687;28;20472;-74
2022/07/14 10:39:35;;;;;;;4.57;2.57;;;;;;;28.70;45.65;96390.81;5093544;28;20427;-74
2022/07/14 10:42:05;;;;;;;8.00;2.27;;;;;;;29.07;44.34;96406.19;5058499;28;20889;-74
2022/07/14 10:44:35;;;;;;;2.63;2.30;;;;;;;29.53;42.20;96409.16;5072430;28;20514;-74
2022/07/14 10:47:10;;;;;;;2.53;2.03;;;;;;;29.26;41.69;96401.63;5084616;28;20940;-74
2022/07/14 10:50:06;;;;;;;3.53;2.00;;;;;;;29.71;40.84;96395.56;5088933;28;20467;-74
2022/07/14 10:52:35;;;;;;;2.23;2.03;;;;;;;30.10;39.77;96393.25;5070027;28;20432;-75
2022/07/14 10:55:22;;;;;;;3.53;1.93;;;;;;;30.44;39.46;96397.63;5088763;28;20441;-74
2022/07/14 10:57:58;;;;;;;3.40;2.60;;;;;;;30.81;39.72;96384.72;5073932;28;20966;-74
2022/07/14 11:00:43;;;;;;;7.37;2.17;;;;;;;30.00;39.62;96376.06;5091891;28;20482;-74
2022/07/14 11:03:20;;;;;;;3.23;2.17;;;;;;;29.42;40.07;96281.47;5091783;28;20443;-74
2022/07/14 11:06:03;;;;;;;3.47;2.73;;;;;;;29.96;40.25;96372.75;5093044;28;20481;-74
2022/07/14 11:09:18;;;;;;;7.90;3.00;;;;;;;29.70;40.27;96364.06;5091573;28;20823;-74
2022/07/14 11:12:07;;;;;;;4.93;1.87;;;;;;;29.51;40.92;96361.75;5081731;28;20432;-74
2022/07/14 11:14:41;;;;;;;8.00;2.50;;;;;;;29.94;40.08;96361.53;5072736;28;20856;-74
2022/07/14 11:17:28;;;;;;;6.27;2.70;;;;;;;30.15;40.25;96343.53;5084932;28;20442;-74
2022/07/14 11:19:54;;;;;;;2.90;2.60;;;;;;;30.50;39.40;96343.94;5072569;28;20503;-74
2022/07/14 11:22:21;;;;;;;3.90;2.90;;;;;;;30.66;39.46;96339.41;5090074;28;20423;-74
2022/07/14 11:24:54;;;;;;;2.70;2.27;;;;;;;30.17;39.50;96343.06;5080881;28;20979;-74
2022/07/14 11:27:40;;;;;;;4.60;2.40;;;;;;;30.24;38.35;96346.25;5072274;28;20561;-74
2022/07/14 11:30:28;;;;;;;4.03;3.03;;;;;;;30.46;39.09;96318.03;5070903;28;20489;-74
2022/07/14 11:33:07;;;;;;;2.67;2.43;;;;;;;30.58;38.16;96308.88;5088137;28;20471;-74
2022/07/14 11:38:31;;;;;;;2.93;2.63;;;;;;;29.86;39.07;96296.81;5070758;28;20533;-74
2022/07/14 11:40:58;;;;;;;4.87;3.00;;;;;;;29.57;39.16;96286.38;5070805;28;20492;-74
2022/07/14 11:43:28;;;;;;;5.20;2.60;;;;;;;29.40;39.33;96313.88;5053756;28;20432;-74
2022/07/14 11:46:01;;;;;;;8.03;2.87;;;;;;;30.72;38.52;96313.00;5071142;28;20845;-74
2022/07/14 11:48:30;;;;;;;4.20;2.73;;;;;;;31.24;38.16;96302.78;5050705;28;20495;-74
2022/07/14 11:51:19;;;;;;;3.70;2.33;;;;;;;30.53;38.84;96255.69;5064931;28;20835;-74
2022/07/14 11:53:51;;;;;;;5.57;2.40;;;;;;;29.87;39.11;96290.16;5076893;28;20423;-74